Cumberland, Washington
Current Conditions -  °F | °C
As of 10:53 PM on Friday 24 Oct 2014 (Local Time) from KRNT Reporting Station
Light Rain Light Rain  
Wind Chill: 52°   Ceiling: 6500
Heat Index: 52°   Visibility: 10mi
Dew Point: 50°   Wind: 6mph
Humidity: 93%   Direction: 350°N
Pressure: 29.78"   Gusts: NA
Location:  47.1782°N, 121.641°W
Report Text: KRNT 250553Z AUTO 35005KT 10SM -RA BKN065 OVC085 11/10 A2978 RMK AO2 SLP091 P0002 60015 T01110100 10139 20111 58023
Loading
Personal Weather Stations






























Interactive Weather Map
Tropical Storm Tracking
New forecast layout! Learn more

10-Day Weather Forecast

Advertisements
Track Severe Weather on mobile